createdAt,value
2023-03-08T00:02:02.116Z,61.34
2023-03-08T00:04:48.678Z,61.24
2023-03-08T00:07:35.144Z,60.86
2023-03-08T00:10:22.343Z,61.46
2023-03-08T00:13:08.997Z,60.95
2023-03-08T00:16:00.807Z,60.92
2023-03-08T00:18:48.245Z,60.62
2023-03-08T00:21:34.760Z,60.90
2023-03-08T00:24:21.049Z,60.85
2023-03-08T00:27:07.371Z,61.50
2023-03-08T00:29:53.596Z,61.54
2023-03-08T00:32:40.285Z,61.61
2023-03-08T00:35:26.770Z,62.16
2023-03-08T00:38:13.274Z,61.85
2023-03-08T00:41:00.585Z,61.03
2023-03-08T00:43:47.184Z,62.13
2023-03-08T00:46:33.356Z,63.52
2023-03-08T00:49:19.530Z,63.28
2023-03-08T00:52:06.376Z,64.25
2023-03-08T00:54:53.154Z,65.50
2023-03-08T00:57:44.153Z,65.87
2023-03-08T01:00:31.635Z,66.21
2023-03-08T01:03:18.816Z,66.09
2023-03-08T01:06:11.289Z,68.24
2023-03-08T01:08:57.581Z,68.49
2023-03-08T01:11:44.285Z,68.13
2023-03-08T01:14:33.031Z,69.31
2023-03-08T01:17:19.509Z,69.41
2023-03-08T01:20:07.291Z,69.34
2023-03-08T01:22:53.876Z,69.00
2023-03-08T01:25:40.551Z,69.78
2023-03-08T01:28:27.375Z,69.49
2023-03-08T01:31:23.400Z,69.18
2023-03-08T01:34:11.208Z,69.85
2023-03-08T01:36:57.788Z,70.61
2023-03-08T01:39:44.116Z,71.69
2023-03-08T01:42:30.535Z,71.79
2023-03-08T01:45:54.686Z,71.72
2023-03-08T01:48:52.910Z,72.60
2023-03-08T01:51:42.792Z,73.36
2023-03-08T01:54:33.411Z,72.96
2023-03-08T01:57:39.075Z,74.01
2023-03-08T02:00:27.315Z,74.42
2023-03-08T02:03:14.244Z,75.52
2023-03-08T02:06:03.044Z,76.33
2023-03-08T02:08:50.677Z,77.07
2023-03-08T02:11:40.630Z,76.46
2023-03-08T02:14:27.838Z,76.24
2023-03-08T02:17:14.492Z,76.99
2023-03-08T02:20:14.852Z,77.12
2023-03-08T02:23:30.416Z,79.29
2023-03-08T02:26:17.604Z,80.28
2023-03-08T02:29:03.857Z,80.73
2023-03-08T02:31:50.102Z,80.97
2023-03-08T02:34:36.832Z,80.27
2023-03-08T02:37:23.808Z,80.13
2023-03-08T02:40:11.680Z,79.34
2023-03-08T02:42:58.270Z,78.70
2023-03-08T02:45:44.939Z,78.31
2023-03-08T02:48:31.400Z,77.64
2023-03-08T02:51:18.259Z,77.17
2023-03-08T02:54:04.807Z,77.69
2023-03-08T02:56:51.400Z,77.37
2023-03-08T02:59:38.424Z,76.28
2023-03-08T03:02:25.176Z,74.96
2023-03-08T03:05:11.960Z,74.60
2023-03-08T03:08:01.311Z,75.85
2023-03-08T03:10:49.232Z,75.00
2023-03-08T03:13:35.513Z,75.26
2023-03-08T03:16:22.299Z,75.71
2023-03-08T03:19:09.199Z,75.24
2023-03-08T03:21:55.755Z,75.26
2023-03-08T03:24:42.534Z,74.58
2023-03-08T03:27:29.211Z,74.98
2023-03-08T03:30:16.568Z,74.55
2023-03-08T03:33:03.933Z,74.74
2023-03-08T03:35:51.859Z,73.94
2023-03-08T03:38:38.776Z,75.10
2023-03-08T03:41:25.584Z,74.65
2023-03-08T03:44:21.041Z,76.01
2023-03-08T03:47:09.399Z,76.62
2023-03-08T03:49:55.958Z,77.62
2023-03-08T03:52:43.376Z,77.98
2023-03-08T03:55:29.683Z,78.86
2023-03-08T03:58:17.156Z,78.42
2023-03-08T04:01:12.350Z,78.68
2023-03-08T04:03:58.897Z,78.11
2023-03-08T04:06:46.738Z,77.84
2023-03-08T04:09:35.938Z,77.18
2023-03-08T04:12:27.789Z,75.68
2023-03-08T04:15:15.554Z,75.65
2023-03-08T04:18:02.075Z,75.81
2023-03-08T04:20:52.398Z,75.55
2023-03-08T04:23:39.890Z,75.14
2023-03-08T04:26:29.426Z,74.87
2023-03-08T04:29:15.851Z,74.99
2023-03-08T04:32:02.738Z,75.66
2023-03-08T04:34:59.344Z,75.75
2023-03-08T04:37:49.714Z,75.92
2023-03-08T04:40:59.086Z,76.37
2023-03-08T04:43:54.310Z,77.56
2023-03-08T04:46:47.234Z,76.05
2023-03-08T04:49:40.317Z,77.41
2023-03-08T04:52:27.509Z,76.30
2023-03-08T04:55:14.194Z,75.61
2023-03-08T04:58:00.898Z,76.04
2023-03-08T05:00:50.051Z,76.44
2023-03-08T05:03:36.721Z,76.91
2023-03-08T05:06:25.368Z,78.17
2023-03-08T05:09:12.828Z,78.90
2023-03-08T05:12:01.364Z,78.65
2023-03-08T05:14:58.135Z,79.43
2023-03-08T05:17:46.368Z,80.48
2023-03-08T05:20:32.755Z,80.31
2023-03-08T05:23:19.631Z,78.77
2023-03-08T05:26:07.326Z,77.95
2023-03-08T05:28:54.948Z,78.59
2023-03-08T05:31:46.817Z,79.61
2023-03-08T05:34:34.700Z,80.15
2023-03-08T05:37:27.338Z,78.80
2023-03-08T05:40:14.280Z,79.14
2023-03-08T05:43:03.541Z,79.75
2023-03-08T05:45:57.743Z,80.52
2023-03-08T05:48:45.871Z,80.69
2023-03-08T05:51:34.777Z,79.64
2023-03-08T05:54:22.648Z,80.02
2023-03-08T05:57:11.537Z,80.25
2023-03-08T05:59:58.767Z,80.73
2023-03-08T06:02:46.043Z,78.96
2023-03-08T06:05:34.239Z,79.23
2023-03-08T06:08:20.999Z,79.42
2023-03-08T06:11:08.713Z,79.67
2023-03-08T06:13:55.662Z,78.35
2023-03-08T06:16:48.622Z,79.06
2023-03-08T06:19:36.530Z,78.71
2023-03-08T06:22:23.497Z,78.69
2023-03-08T06:25:10.982Z,79.11
2023-03-08T06:27:58.605Z,78.11
2023-03-08T06:30:57.952Z,78.51
2023-03-08T06:33:45.041Z,77.31
2023-03-08T06:36:35.923Z,78.06
2023-03-08T06:39:22.687Z,78.71
2023-03-08T06:42:09.749Z,78.49
2023-03-08T06:44:56.259Z,78.68
2023-03-08T06:47:42.654Z,79.86
2023-03-08T06:50:30.174Z,79.04
2023-03-08T06:53:16.949Z,78.67
2023-03-08T06:56:16.774Z,77.87
2023-03-08T06:59:03.575Z,76.34
2023-03-08T07:01:50.198Z,75.57
2023-03-08T07:04:36.411Z,74.65
2023-03-08T07:07:23.327Z,74.81
2023-03-08T07:10:11.289Z,74.42
2023-03-08T07:12:58.359Z,73.56
2023-03-08T07:15:44.619Z,75.09
2023-03-08T07:18:30.942Z,75.07
2023-03-08T07:21:17.987Z,75.10
2023-03-08T07:24:04.683Z,75.89
2023-03-08T07:26:51.067Z,76.25
2023-03-08T07:29:37.529Z,77.03
2023-03-08T07:32:29.434Z,78.28
2023-03-08T07:35:16.220Z,80.76
2023-03-08T07:38:02.881Z,80.27
2023-03-08T07:40:56.893Z,81.24
2023-03-08T07:43:43.911Z,83.65
2023-03-08T07:46:40.735Z,86.15
2023-03-08T07:49:27.033Z,87.21
2023-03-08T07:52:13.881Z,89.96
2023-03-08T07:55:02.231Z,92.16
2023-03-08T07:57:48.664Z,95.17
2023-03-08T08:00:35.234Z,98.27
2023-03-08T08:03:21.742Z,98.83
2023-03-08T08:06:09.234Z,99.30
2023-03-08T08:08:56.421Z,100.00
2023-03-08T08:11:43.373Z,100.00
2023-03-08T08:14:29.720Z,100.00
2023-03-08T08:17:17.798Z,100.00
2023-03-08T08:20:06.758Z,100.00
2023-03-08T08:22:54.358Z,100.00
2023-03-08T08:25:41.058Z,100.00
2023-03-08T08:28:29.464Z,100.00
2023-03-08T08:31:20.655Z,100.00
2023-03-08T08:34:07.376Z,100.00
2023-03-08T08:36:53.704Z,100.00
2023-03-08T08:39:40.712Z,100.00
2023-03-08T08:42:27.423Z,100.00
2023-03-08T08:45:13.721Z,100.00
2023-03-08T08:48:00.035Z,100.00
2023-03-08T08:50:46.371Z,100.00
2023-03-08T08:53:33.846Z,100.00
2023-03-08T08:56:27.089Z,100.00
2023-03-08T08:59:16.605Z,100.00
2023-03-08T09:02:04.235Z,100.00
2023-03-08T09:04:50.670Z,100.00
2023-03-08T09:07:38.270Z,100.00
2023-03-08T09:10:27.602Z,100.00
2023-03-08T09:13:14.166Z,100.00
2023-03-08T09:16:01.008Z,100.00
2023-03-08T09:18:47.687Z,100.00
2023-03-08T09:21:35.294Z,100.00
2023-03-08T09:24:22.773Z,100.00
2023-03-08T09:27:09.152Z,100.00
2023-03-08T09:29:55.481Z,100.00
2023-03-08T09:32:42.272Z,100.00
2023-03-08T09:35:30.640Z,100.00
2023-03-08T09:38:17.247Z,100.00
2023-03-08T09:41:28.628Z,100.00
2023-03-08T09:44:27.378Z,100.00
2023-03-08T09:47:30.628Z,100.00
2023-03-08T09:50:28.404Z,100.00
2023-03-08T09:53:22.693Z,100.00
2023-03-08T09:56:20.092Z,100.00
2023-03-08T09:59:11.585Z,100.00
2023-03-08T10:02:11.197Z,100.00
2023-03-08T10:05:13.432Z,100.00
2023-03-08T10:08:22.164Z,100.00
2023-03-08T10:11:25.208Z,99.20
2023-03-08T10:14:24.728Z,100.00
2023-03-08T10:17:22.473Z,100.00
2023-03-08T10:20:23.922Z,99.91
2023-03-08T10:23:15.818Z,100.00
2023-03-08T10:26:06.974Z,100.00
2023-03-08T10:28:53.766Z,100.00
2023-03-08T10:31:43.747Z,100.00
2023-03-08T10:34:32.335Z,100.00
2023-03-08T10:37:22.009Z,100.00
2023-03-08T10:40:16.235Z,100.00
2023-03-08T10:43:06.262Z,100.00
2023-03-08T10:46:04.667Z,100.00
2023-03-08T10:48:52.355Z,100.00
2023-03-08T10:51:39.220Z,100.00
2023-03-08T10:54:27.735Z,100.00
2023-03-08T10:57:20.596Z,100.00
2023-03-08T11:00:16.295Z,100.00
2023-03-08T11:03:13.767Z,100.00
2023-03-08T11:06:03.732Z,100.00
2023-03-08T11:08:56.233Z,100.00
2023-03-08T11:11:43.406Z,100.00
2023-03-08T11:14:30.830Z,100.00
2023-03-08T11:17:35.838Z,99.06
2023-03-08T11:20:28.697Z,97.81
2023-03-08T11:23:18.261Z,97.39
2023-03-08T11:26:34.732Z,99.28
2023-03-08T11:29:39.775Z,100.00
2023-03-08T11:32:30.713Z,100.00
2023-03-08T11:35:25.360Z,100.00
2023-03-08T11:38:22.645Z,100.00
2023-03-08T11:41:29.631Z,99.12
2023-03-08T11:44:37.340Z,96.00
2023-03-08T11:47:51.448Z,95.13
2023-03-08T11:51:02.725Z,96.39
2023-03-08T11:54:34.401Z,95.29
2023-03-08T11:57:22.368Z,95.00
2023-03-08T12:00:33.508Z,94.75
2023-03-08T12:03:24.382Z,93.16
2023-03-08T12:06:28.619Z,92.23
2023-03-08T12:09:40.264Z,91.69
2023-03-08T12:12:34.040Z,87.98
2023-03-08T12:15:26.055Z,88.22
2023-03-08T12:18:22.956Z,87.82
2023-03-08T12:21:26.468Z,87.23
2023-03-08T12:24:40.642Z,86.23
2023-03-08T12:27:41.259Z,87.54
2023-03-08T12:31:26.635Z,87.57
2023-03-08T12:34:26.843Z,86.96
2023-03-08T12:37:29.714Z,86.75
2023-03-08T12:40:50.268Z,85.67
2023-03-08T12:43:38.102Z,84.77
2023-03-08T12:46:24.880Z,85.90
2023-03-08T12:49:45.713Z,85.91
2023-03-08T12:52:35.300Z,83.85
2023-03-08T12:55:31.796Z,83.38
2023-03-08T12:58:18.899Z,83.83
2023-03-08T13:01:23.077Z,86.43
2023-03-08T13:04:39.784Z,85.30
2023-03-08T13:07:36.578Z,84.62
2023-03-08T13:10:29.995Z,83.96
2023-03-08T13:13:43.983Z,84.33
2023-03-08T13:16:37.720Z,83.28
2023-03-08T13:19:28.897Z,82.52
2023-03-08T13:22:31.887Z,82.38
2023-03-08T13:25:40.181Z,81.30
2023-03-08T13:28:46.245Z,79.67
2023-03-08T13:31:34.082Z,80.15
2023-03-08T13:34:30.005Z,79.92
2023-03-08T13:37:25.328Z,79.88
2023-03-08T13:40:18.029Z,80.15
2023-03-08T13:43:08.474Z,80.96
2023-03-08T13:45:58.591Z,83.00
2023-03-08T13:48:45.756Z,83.29
2023-03-08T13:51:32.572Z,85.95
2023-03-08T13:54:29.823Z,89.21
2023-03-08T13:57:29.436Z,94.96
2023-03-08T14:00:25.152Z,99.52
2023-03-08T14:03:20.432Z,100.00
2023-03-08T14:06:31.076Z,100.00
2023-03-08T14:09:18.458Z,99.20
2023-03-08T14:12:07.280Z,100.00
2023-03-08T14:15:00.050Z,100.00
2023-03-08T14:17:46.337Z,100.00
2023-03-08T14:20:32.647Z,100.00
2023-03-08T14:23:24.242Z,100.00
2023-03-08T14:26:34.799Z,100.00
2023-03-08T14:29:25.582Z,100.00
2023-03-08T14:32:12.401Z,100.00
2023-03-08T14:35:21.901Z,100.00
2023-03-08T14:38:30.930Z,100.00
2023-03-08T14:41:17.911Z,100.00
2023-03-08T14:44:05.128Z,100.00
2023-03-08T14:46:59.912Z,100.00
2023-03-08T14:50:00.736Z,100.00
2023-03-08T14:52:51.478Z,100.00
2023-03-08T14:55:40.124Z,100.00
2023-03-08T14:58:32.538Z,100.00
2023-03-08T15:01:28.895Z,100.00
2023-03-08T15:04:25.876Z,100.00
2023-03-08T15:07:22.309Z,100.00
2023-03-08T15:10:18.159Z,100.00
2023-03-08T15:13:13.519Z,100.00
2023-03-08T15:15:59.974Z,100.00
2023-03-08T15:18:46.431Z,100.00
2023-03-08T15:21:33.763Z,100.00
2023-03-08T15:24:19.856Z,100.00
2023-03-08T15:27:06.094Z,100.00
2023-03-08T15:29:52.390Z,100.00
2023-03-08T15:32:38.974Z,100.00
2023-03-08T15:35:25.597Z,100.00
2023-03-08T15:38:14.023Z,100.00
2023-03-08T15:41:00.947Z,100.00
2023-03-08T15:43:48.556Z,100.00
2023-03-08T15:46:34.811Z,100.00
2023-03-08T15:49:21.132Z,100.00
2023-03-08T15:52:08.774Z,100.00
2023-03-08T15:54:55.397Z,100.00
2023-03-08T15:57:42.098Z,100.00
2023-03-08T16:00:29.146Z,100.00
2023-03-08T16:03:15.419Z,100.00
2023-03-08T16:06:03.135Z,100.00
2023-03-08T16:08:50.362Z,100.00
2023-03-08T16:11:37.123Z,100.00
2023-03-08T16:14:23.523Z,100.00
2023-03-08T16:17:10.633Z,100.00
2023-03-08T16:19:57.111Z,100.00
2023-03-08T16:22:45.457Z,100.00
2023-03-08T16:25:31.564Z,100.00
2023-03-08T16:28:18.713Z,100.00
2023-03-08T16:31:05.481Z,100.00
2023-03-08T16:33:51.857Z,100.00
2023-03-08T16:36:38.153Z,100.00
2023-03-08T16:39:25.577Z,100.00
2023-03-08T16:42:13.601Z,100.00
2023-03-08T16:45:00.940Z,100.00
2023-03-08T16:47:48.354Z,100.00
2023-03-08T16:50:34.864Z,100.00
2023-03-08T16:53:22.082Z,100.00
2023-03-08T16:56:10.672Z,100.00
2023-03-08T16:58:59.206Z,100.00
2023-03-08T17:01:47.292Z,100.00
2023-03-08T17:04:33.463Z,100.00
2023-03-08T17:07:21.618Z,100.00
2023-03-08T17:10:08.704Z,100.00
2023-03-08T17:12:55.202Z,100.00
2023-03-08T17:15:43.598Z,100.00
2023-03-08T17:18:29.874Z,100.00
2023-03-08T17:21:16.256Z,100.00
2023-03-08T17:24:05.544Z,100.00
2023-03-08T17:26:53.041Z,100.00
2023-03-08T17:29:39.677Z,100.00
2023-03-08T17:32:26.201Z,100.00
2023-03-08T17:35:13.345Z,100.00
2023-03-08T17:37:59.948Z,100.00
2023-03-08T17:40:46.311Z,100.00
2023-03-08T17:43:32.790Z,100.00
2023-03-08T17:46:23.394Z,100.00
2023-03-08T17:49:12.025Z,100.00
2023-03-08T17:51:58.271Z,100.00
2023-03-08T17:54:44.865Z,100.00
2023-03-08T17:57:31.566Z,100.00
2023-03-08T18:00:19.460Z,100.00
2023-03-08T18:03:06.187Z,100.00
2023-03-08T18:05:53.030Z,100.00
2023-03-08T18:08:39.511Z,100.00
2023-03-08T18:11:26.504Z,100.00
2023-03-08T18:14:14.608Z,100.00
2023-03-08T18:17:01.465Z,100.00
2023-03-08T18:19:49.151Z,100.00
2023-03-08T18:22:37.166Z,100.00
2023-03-08T18:25:23.670Z,100.00
2023-03-08T18:28:09.987Z,100.00
2023-03-08T18:30:56.588Z,100.00
2023-03-08T18:33:44.042Z,100.00
2023-03-08T18:36:30.716Z,100.00
2023-03-08T18:39:17.587Z,100.00
2023-03-08T18:42:04.474Z,100.00
2023-03-08T18:44:51.103Z,100.00
2023-03-08T18:47:37.977Z,100.00
2023-03-08T18:50:25.375Z,100.00
2023-03-08T18:53:16.301Z,100.00
2023-03-08T18:56:04.106Z,100.00
2023-03-08T18:58:50.717Z,100.00
2023-03-08T19:01:37.147Z,100.00
2023-03-08T19:04:23.657Z,100.00
2023-03-08T19:07:10.721Z,100.00
2023-03-08T19:09:57.071Z,100.00
2023-03-08T19:12:43.931Z,100.00
2023-03-08T19:15:30.485Z,100.00
2023-03-08T19:18:17.178Z,100.00
2023-03-08T19:21:03.606Z,100.00
2023-03-08T19:23:50.062Z,100.00
2023-03-08T19:26:37.903Z,100.00
2023-03-08T19:29:30.160Z,100.00
2023-03-08T19:32:17.619Z,100.00
2023-03-08T19:35:05.514Z,100.00
2023-03-08T19:37:52.092Z,100.00
2023-03-08T19:40:39.638Z,100.00
2023-03-08T19:43:27.714Z,100.00
2023-03-08T19:46:17.712Z,100.00
2023-03-08T19:49:06.472Z,100.00
2023-03-08T19:51:55.281Z,100.00
2023-03-08T19:54:43.807Z,100.00
2023-03-08T19:57:30.352Z,100.00
2023-03-08T20:00:17.952Z,100.00
2023-03-08T20:03:04.737Z,100.00
2023-03-08T20:05:51.165Z,100.00
2023-03-08T20:08:38.369Z,100.00
2023-03-08T20:11:25.090Z,100.00
2023-03-08T20:14:11.888Z,100.00
2023-03-08T20:16:59.305Z,100.00
2023-03-08T20:19:45.800Z,100.00
2023-03-08T20:22:32.683Z,100.00
2023-03-08T20:25:19.110Z,100.00
2023-03-08T20:28:05.871Z,100.00
2023-03-08T20:30:52.504Z,100.00
2023-03-08T20:33:39.609Z,100.00
2023-03-08T20:36:26.631Z,100.00
2023-03-08T20:39:13.395Z,100.00
2023-03-08T20:42:00.237Z,100.00
2023-03-08T20:44:47.498Z,100.00
2023-03-08T20:47:34.085Z,100.00
2023-03-08T20:50:26.291Z,100.00
2023-03-08T20:53:13.166Z,100.00
2023-03-08T20:56:04.957Z,100.00
2023-03-08T20:58:55.110Z,100.00
2023-03-08T21:01:43.389Z,100.00
2023-03-08T21:04:31.072Z,100.00
2023-03-08T21:07:17.268Z,100.00
2023-03-08T21:10:04.654Z,100.00
2023-03-08T21:12:50.954Z,100.00
2023-03-08T21:15:37.450Z,100.00
2023-03-08T21:18:24.033Z,100.00
2023-03-08T21:21:17.593Z,100.00
2023-03-08T21:24:07.290Z,100.00
2023-03-08T21:26:53.869Z,100.00
2023-03-08T21:29:41.062Z,100.00
2023-03-08T21:32:28.180Z,100.00
2023-03-08T21:35:14.826Z,100.00
2023-03-08T21:40:56.290Z,100.00
2023-03-08T21:43:42.990Z,100.00
2023-03-08T21:46:29.375Z,100.00
2023-03-08T21:49:18.777Z,100.00
2023-03-08T21:52:07.516Z,100.00
2023-03-08T21:54:54.666Z,100.00
2023-03-08T21:57:43.125Z,100.00
2023-03-08T22:00:29.439Z,100.00
2023-03-08T22:03:16.120Z,100.00
2023-03-08T22:06:02.853Z,100.00
2023-03-08T22:08:50.379Z,100.00
2023-03-08T22:11:36.829Z,100.00
2023-03-08T22:14:23.371Z,100.00
2023-03-08T22:17:09.632Z,100.00
2023-03-08T22:19:56.854Z,100.00
2023-03-08T22:22:44.287Z,100.00
2023-03-08T22:25:31.232Z,100.00
2023-03-08T22:28:17.968Z,100.00
2023-03-08T22:31:15.896Z,100.00
2023-03-08T22:34:02.329Z,100.00
2023-03-08T22:36:49.076Z,100.00
2023-03-08T22:39:37.621Z,100.00
2023-03-08T22:42:24.263Z,100.00
2023-03-08T22:45:11.168Z,100.00
2023-03-08T22:48:00.519Z,100.00
2023-03-08T22:50:46.764Z,100.00
2023-03-08T22:53:32.791Z,100.00
2023-03-08T22:56:30.142Z,100.00
2023-03-08T22:59:16.736Z,100.00
2023-03-08T23:02:04.613Z,100.00
2023-03-08T23:04:50.905Z,100.00
2023-03-08T23:07:37.178Z,100.00
2023-03-08T23:10:23.760Z,100.00
2023-03-08T23:13:14.356Z,100.00
2023-03-08T23:16:03.078Z,100.00
2023-03-08T23:18:51.315Z,100.00
2023-03-08T23:21:38.260Z,100.00
2023-03-08T23:24:25.463Z,100.00
2023-03-08T23:27:12.095Z,100.00
2023-03-08T23:29:58.597Z,100.00
2023-03-08T23:32:45.292Z,100.00
2023-03-08T23:35:31.750Z,100.00
2023-03-08T23:38:18.374Z,100.00
2023-03-08T23:41:06.640Z,100.00
2023-03-08T23:43:58.013Z,100.00
2023-03-08T23:46:46.139Z,100.00
2023-03-08T23:49:32.464Z,100.00
2023-03-08T23:52:18.962Z,100.00
2023-03-08T23:55:05.900Z,100.00
2023-03-08T23:57:52.733Z,100.00
